createdAt,value
2024-02-20T00:00:05.620Z,1026.5
2024-02-20T00:01:21.721Z,1026.5
2024-02-20T00:02:37.837Z,1026.4
2024-02-20T00:03:53.939Z,1026.5
2024-02-20T00:05:10.034Z,1026.5
2024-02-20T00:06:26.130Z,1026.5
2024-02-20T00:07:42.242Z,1026.5
2024-02-20T00:08:58.343Z,1026.5
2024-02-20T00:10:14.452Z,1026.5
2024-02-20T00:11:30.553Z,1026.5
2024-02-20T00:12:46.676Z,1026.5
2024-02-20T00:14:02.770Z,1026.5
2024-02-20T00:15:18.884Z,1026.5
2024-02-20T00:16:35.002Z,1026.6
2024-02-20T00:17:51.109Z,1026.6
2024-02-20T00:19:06.222Z,1026.6
2024-02-20T00:20:22.319Z,1026.6
2024-02-20T00:21:38.432Z,1026.6
2024-02-20T00:22:54.541Z,1026.6
2024-02-20T00:24:10.648Z,1026.6
2024-02-20T00:25:26.750Z,1026.6
2024-02-20T00:26:42.855Z,1026.6
2024-02-20T00:27:58.974Z,1026.6
2024-02-20T00:29:15.090Z,1026.7
2024-02-20T00:30:31.198Z,1026.6
2024-02-20T00:31:47.293Z,1026.6
2024-02-20T00:33:03.407Z,1026.6
2024-02-20T00:34:19.508Z,1026.6
2024-02-20T00:35:34.637Z,1026.6
2024-02-20T00:36:50.744Z,1026.6
2024-02-20T00:38:06.852Z,1026.5
2024-02-20T00:39:22.976Z,1026.6
2024-02-20T00:40:39.084Z,1026.6
2024-02-20T00:41:55.192Z,1026.6
2024-02-20T00:43:11.297Z,1026.6
2024-02-20T00:44:27.417Z,1026.6
2024-02-20T00:45:43.520Z,1026.6
2024-02-20T00:46:59.633Z,1026.5
2024-02-20T00:48:15.748Z,1026.5
2024-02-20T00:49:31.864Z,1026.5
2024-02-20T00:50:47.981Z,1026.5
2024-02-20T00:52:04.081Z,1026.5
2024-02-20T00:53:19.212Z,1026.6
2024-02-20T00:54:35.323Z,1026.6
2024-02-20T00:55:51.433Z,1026.6
2024-02-20T00:57:07.534Z,1026.7
2024-02-20T00:58:23.654Z,1026.7
2024-02-20T00:59:39.757Z,1026.7
2024-02-20T01:00:55.858Z,1026.7
2024-02-20T01:02:11.981Z,1026.6
2024-02-20T01:03:28.090Z,1026.6
2024-02-20T01:04:44.190Z,1026.6
2024-02-20T01:06:00.306Z,1026.6
2024-02-20T01:07:16.408Z,1026.6
2024-02-20T01:08:32.530Z,1026.7
2024-02-20T01:09:47.650Z,1026.7
2024-02-20T01:11:03.772Z,1026.7
2024-02-20T01:12:19.871Z,1026.7
2024-02-20T01:13:35.996Z,1026.7
2024-02-20T01:14:52.099Z,1026.7
2024-02-20T01:16:08.215Z,1026.7
2024-02-20T01:17:24.307Z,1026.7
2024-02-20T01:18:40.423Z,1026.7
2024-02-20T01:19:56.544Z,1026.7
2024-02-20T01:21:12.640Z,1026.7
2024-02-20T01:22:28.748Z,1026.7
2024-02-20T01:23:44.864Z,1026.7
2024-02-20T01:25:00.973Z,1026.7
2024-02-20T01:26:16.106Z,1026.7
2024-02-20T01:27:32.221Z,1026.7
2024-02-20T01:28:48.323Z,1026.7
2024-02-20T01:30:04.438Z,1026.7
2024-02-20T01:31:20.526Z,1026.7
2024-02-20T01:32:36.648Z,1026.7
2024-02-20T01:33:52.751Z,1026.7
2024-02-20T01:35:08.844Z,1026.7
2024-02-20T01:36:24.958Z,1026.7
2024-02-20T01:37:41.060Z,1026.6
2024-02-20T01:38:57.184Z,1026.6
2024-02-20T01:40:13.285Z,1026.6
2024-02-20T01:41:29.381Z,1026.7
2024-02-20T01:42:45.493Z,1026.6
2024-02-20T01:44:01.596Z,1026.6
2024-02-20T01:45:16.701Z,1026.6
2024-02-20T01:46:32.809Z,1026.6
2024-02-20T01:47:48.917Z,1026.6
2024-02-20T01:49:05.021Z,1026.7
2024-02-20T01:50:21.135Z,1026.7
2024-02-20T01:51:37.250Z,1026.7
2024-02-20T01:52:53.351Z,1026.7
2024-02-20T01:54:09.467Z,1026.7
2024-02-20T01:55:25.561Z,1026.7
2024-02-20T01:56:41.670Z,1026.7
2024-02-20T01:57:57.778Z,1026.7
2024-02-20T01:59:13.879Z,1026.7
2024-02-20T02:00:29.994Z,1026.7
2024-02-20T02:01:45.122Z,1026.7
2024-02-20T02:03:01.244Z,1026.7
2024-02-20T02:04:17.346Z,1026.7
2024-02-20T02:05:33.447Z,1026.7
2024-02-20T02:06:49.548Z,1026.7
2024-02-20T02:08:05.671Z,1026.7
2024-02-20T02:09:21.773Z,1026.7
2024-02-20T02:10:37.885Z,1026.8
2024-02-20T02:11:53.989Z,1026.7
2024-02-20T02:13:10.106Z,1026.8
2024-02-20T02:14:26.213Z,1026.8
2024-02-20T02:15:42.314Z,1026.8
2024-02-20T02:16:58.415Z,1026.8
2024-02-20T02:18:13.550Z,1026.9
2024-02-20T02:19:29.651Z,1026.9
2024-02-20T02:20:45.765Z,1026.8
2024-02-20T02:22:01.847Z,1026.8
2024-02-20T02:23:17.949Z,1026.9
2024-02-20T02:24:34.056Z,1026.9
2024-02-20T02:25:50.172Z,1026.9
2024-02-20T02:27:06.283Z,1026.9
2024-02-20T02:28:22.384Z,1026.9
2024-02-20T02:29:38.504Z,1026.9
2024-02-20T02:30:53.632Z,1026.9
2024-02-20T02:32:09.740Z,1026.9
2024-02-20T02:33:25.855Z,1026.9
2024-02-20T02:34:41.960Z,1026.9
2024-02-20T02:35:58.051Z,1026.9
2024-02-20T02:37:14.151Z,1026.9
2024-02-20T02:38:30.275Z,1026.9
2024-02-20T02:39:46.391Z,1026.9
2024-02-20T02:41:02.491Z,1026.9
2024-02-20T02:42:18.614Z,1026.9
2024-02-20T02:43:34.715Z,1026.9
2024-02-20T02:44:50.847Z,1026.9
2024-02-20T02:46:06.953Z,1027
2024-02-20T02:47:22.081Z,1026.9
2024-02-20T02:48:38.210Z,1026.9
2024-02-20T02:49:54.311Z,1026.9
2024-02-20T02:51:10.442Z,1027
2024-02-20T02:52:26.556Z,1027
2024-02-20T02:53:42.659Z,1027
2024-02-20T02:54:58.772Z,1027
2024-02-20T02:56:14.903Z,1027.1
2024-02-20T02:57:31.018Z,1027.1
2024-02-20T02:58:47.129Z,1027
2024-02-20T03:00:03.228Z,1027
2024-02-20T03:01:19.350Z,1027
2024-02-20T03:02:35.458Z,1027
2024-02-20T03:03:50.587Z,1027
2024-02-20T03:05:06.688Z,1027
2024-02-20T03:06:22.795Z,1027.1
2024-02-20T03:07:38.918Z,1027
2024-02-20T03:08:55.028Z,1027
2024-02-20T03:10:11.144Z,1027
2024-02-20T03:11:27.229Z,1027.1
2024-02-20T03:12:43.337Z,1027.1
2024-02-20T03:13:59.462Z,1027.1
2024-02-20T03:15:15.575Z,1027.1
2024-02-20T03:16:31.677Z,1027.1
2024-02-20T03:17:47.777Z,1027.1
2024-02-20T03:19:03.901Z,1027.1
2024-02-20T03:20:19.028Z,1027.1
2024-02-20T03:21:35.123Z,1027.2
2024-02-20T03:22:51.223Z,1027.1
2024-02-20T03:24:07.346Z,1027.1
2024-02-20T03:25:23.447Z,1027.1
2024-02-20T03:26:39.573Z,1027.1
2024-02-20T03:27:55.678Z,1027.1
2024-02-20T03:29:11.786Z,1027.1
2024-02-20T03:30:27.902Z,1027.2
2024-02-20T03:31:44.011Z,1027.1
2024-02-20T03:33:00.113Z,1027.1
2024-02-20T03:34:16.220Z,1027.1
2024-02-20T03:35:32.327Z,1027.2
2024-02-20T03:36:48.437Z,1027.2
2024-02-20T03:38:03.555Z,1027.1
2024-02-20T03:39:19.658Z,1027.1
2024-02-20T03:40:35.781Z,1027.1
2024-02-20T03:41:51.869Z,1027.1
2024-02-20T03:43:07.976Z,1027.2
2024-02-20T03:44:24.095Z,1027.2
2024-02-20T03:45:40.200Z,1027.2
2024-02-20T03:46:56.308Z,1027.2
2024-02-20T03:48:12.400Z,1027.1
2024-02-20T03:49:28.507Z,1027.2
2024-02-20T03:50:44.618Z,1027.2
2024-02-20T03:52:00.721Z,1027.2
2024-02-20T03:53:16.822Z,1027.2
2024-02-20T03:54:32.938Z,1027.1
2024-02-20T03:55:49.046Z,1027.2
2024-02-20T03:57:04.151Z,1027.2
2024-02-20T03:58:20.275Z,1027.2
2024-02-20T03:59:36.375Z,1027.2
2024-02-20T04:00:52.476Z,1027.1
2024-02-20T04:02:08.579Z,1027.1
2024-02-20T04:03:24.674Z,1027.1
2024-02-20T04:04:40.789Z,1027.1
2024-02-20T04:05:56.889Z,1027.2
2024-02-20T04:07:12.991Z,1027.2
2024-02-20T04:08:29.092Z,1027.2
2024-02-20T04:09:45.206Z,1027.1
2024-02-20T04:11:01.302Z,1027.1
2024-02-20T04:12:17.399Z,1027.1
2024-02-20T04:13:33.500Z,1027.1
2024-02-20T04:14:48.638Z,1027
2024-02-20T04:16:04.739Z,1027.1
2024-02-20T04:17:20.862Z,1027.1
2024-02-20T04:18:36.966Z,1027.1
2024-02-20T04:19:53.058Z,1027.1
2024-02-20T04:21:09.181Z,1027.1
2024-02-20T04:22:25.289Z,1027.1
2024-02-20T04:23:41.398Z,1027.1
2024-02-20T04:24:57.498Z,1027.1
2024-02-20T04:26:13.617Z,1027.1
2024-02-20T04:27:29.708Z,1027.1
2024-02-20T04:28:45.810Z,1027.1
2024-02-20T04:30:01.931Z,1027.1
2024-02-20T04:31:17.047Z,1027.1
2024-02-20T04:32:33.161Z,1027.1
2024-02-20T04:33:49.262Z,1027.1
2024-02-20T04:35:05.363Z,1027.1
2024-02-20T04:36:21.486Z,1027.1
2024-02-20T04:37:37.573Z,1027.1
2024-02-20T04:38:53.695Z,1027
2024-02-20T04:40:09.790Z,1027.1
2024-02-20T04:41:25.913Z,1027.1
2024-02-20T04:42:42.020Z,1027
2024-02-20T04:43:58.115Z,1027
2024-02-20T04:45:14.231Z,1027.1
2024-02-20T04:46:30.346Z,1027.1
2024-02-20T04:47:46.434Z,1027.1
2024-02-20T04:49:02.541Z,1027.1
2024-02-20T04:50:17.655Z,1027.1
2024-02-20T04:51:33.769Z,1027.1
2024-02-20T04:52:49.875Z,1027.1
2024-02-20T04:54:05.981Z,1027.1
2024-02-20T04:55:22.090Z,1027.1
2024-02-20T04:56:38.203Z,1027.1
2024-02-20T04:57:54.312Z,1027.1
2024-02-20T04:59:10.420Z,1027.1
2024-02-20T05:00:26.537Z,1027.1
2024-02-20T05:01:42.638Z,1027.1
2024-02-20T05:02:58.761Z,1027
2024-02-20T05:04:14.867Z,1027.1
2024-02-20T05:05:30.984Z,1027.1
2024-02-20T05:06:46.110Z,1027
2024-02-20T05:08:02.219Z,1027
2024-02-20T05:09:18.335Z,1027
2024-02-20T05:10:34.435Z,1027.1
2024-02-20T05:11:50.551Z,1027.1
2024-02-20T05:13:06.673Z,1027.1
2024-02-20T05:14:22.775Z,1027.1
2024-02-20T05:15:38.897Z,1027.1
2024-02-20T05:16:54.999Z,1027.1
2024-02-20T05:18:11.108Z,1027.1
2024-02-20T05:19:27.230Z,1027
2024-02-20T05:20:43.345Z,1027
2024-02-20T05:21:59.447Z,1027.1
2024-02-20T05:23:14.580Z,1027.1
2024-02-20T05:24:30.678Z,1027.1
2024-02-20T05:25:46.806Z,1027.1
2024-02-20T05:27:02.917Z,1027
2024-02-20T05:28:19.022Z,1027.1
2024-02-20T05:29:35.158Z,1027.1
2024-02-20T05:30:51.258Z,1027.1
2024-02-20T05:32:07.375Z,1027
2024-02-20T05:33:23.485Z,1027
2024-02-20T05:34:39.621Z,1027
2024-02-20T05:35:55.735Z,1027
2024-02-20T05:37:11.851Z,1027
2024-02-20T05:38:27.954Z,1026.9
2024-02-20T05:39:43.094Z,1026.9
2024-02-20T05:40:59.223Z,1026.9
2024-02-20T05:42:15.346Z,1026.9
2024-02-20T05:43:31.446Z,1026.9
2024-02-20T05:44:47.577Z,1026.9
2024-02-20T05:46:03.691Z,1026.9
2024-02-20T05:47:19.807Z,1026.9
2024-02-20T05:48:35.908Z,1026.9
2024-02-20T05:49:52.031Z,1026.9
2024-02-20T05:51:08.154Z,1026.9
2024-02-20T05:52:24.277Z,1026.9
2024-02-20T05:53:40.385Z,1026.9
2024-02-20T05:54:56.508Z,1027
2024-02-20T05:56:11.649Z,1026.9
2024-02-20T05:57:27.763Z,1026.9
2024-02-20T05:58:43.879Z,1027
2024-02-20T05:59:59.994Z,1027
2024-02-20T06:01:16.096Z,1027
2024-02-20T06:02:32.232Z,1027
2024-02-20T06:03:48.341Z,1027
2024-02-20T06:05:04.457Z,1027
2024-02-20T06:06:20.571Z,1027
2024-02-20T06:07:36.673Z,1026.9
2024-02-20T06:08:52.803Z,1027
2024-02-20T06:10:08.907Z,1027
2024-02-20T06:11:25.019Z,1027
2024-02-20T06:12:40.143Z,1027
2024-02-20T06:13:56.257Z,1027
2024-02-20T06:15:12.384Z,1027
2024-02-20T06:16:28.493Z,1027
2024-02-20T06:17:44.608Z,1027
2024-02-20T06:19:00.732Z,1027
2024-02-20T06:20:16.840Z,1027
2024-02-20T06:21:32.956Z,1027
2024-02-20T06:22:49.064Z,1027
2024-02-20T06:24:05.176Z,1027
2024-02-20T06:25:21.288Z,1027
2024-02-20T06:26:37.417Z,1027
2024-02-20T06:27:53.539Z,1027.1
2024-02-20T06:29:09.648Z,1027
2024-02-20T06:30:24.782Z,1027.1
2024-02-20T06:31:40.903Z,1027
2024-02-20T06:32:57.000Z,1027
2024-02-20T06:34:13.128Z,1027
2024-02-20T06:35:29.230Z,1027.1
2024-02-20T06:36:45.345Z,1027.1
2024-02-20T06:38:01.468Z,1027.1
2024-02-20T06:39:17.590Z,1027.1
2024-02-20T06:40:33.713Z,1027.1
2024-02-20T06:41:49.827Z,1027.1
2024-02-20T06:43:05.953Z,1027.1
2024-02-20T06:44:22.060Z,1027.1
2024-02-20T06:45:37.207Z,1027.1
2024-02-20T06:46:53.323Z,1027.1
2024-02-20T06:48:09.439Z,1027.1
2024-02-20T06:49:25.553Z,1027.1
2024-02-20T06:50:41.666Z,1027.1
2024-02-20T06:51:57.770Z,1027.1
2024-02-20T06:53:13.892Z,1027.1
2024-02-20T06:54:30.004Z,1027.1
2024-02-20T06:55:46.122Z,1027.2
2024-02-20T06:57:02.245Z,1027.2
2024-02-20T06:58:18.354Z,1027.2
2024-02-20T06:59:34.470Z,1027.1
2024-02-20T07:00:50.592Z,1027.1
2024-02-20T07:02:05.722Z,1027.1
2024-02-20T07:03:21.842Z,1027.1
2024-02-20T07:04:37.943Z,1027.2
2024-02-20T07:05:54.059Z,1027.2
2024-02-20T07:07:10.154Z,1027.2
2024-02-20T07:08:26.269Z,1027.2
2024-02-20T07:09:42.377Z,1027.2
2024-02-20T07:10:58.492Z,1027.1
2024-02-20T07:12:14.615Z,1027.2
2024-02-20T07:13:30.732Z,1027.1
2024-02-20T07:14:46.845Z,1027.1
2024-02-20T07:16:02.949Z,1027.1
2024-02-20T07:17:19.070Z,1027.1
2024-02-20T07:18:34.203Z,1027.1
2024-02-20T07:19:50.305Z,1027.1
2024-02-20T07:21:06.423Z,1027.1
2024-02-20T07:22:22.542Z,1027.1
2024-02-20T07:23:38.638Z,1027.2
2024-02-20T07:24:54.767Z,1027.2
2024-02-20T07:26:10.862Z,1027.2
2024-02-20T07:27:26.990Z,1027.2
2024-02-20T07:28:43.113Z,1027.2
2024-02-20T07:29:59.208Z,1027.2
2024-02-20T07:31:15.338Z,1027.3
2024-02-20T07:32:31.431Z,1027.3
2024-02-20T07:33:47.556Z,1027.2
2024-02-20T07:35:02.681Z,1027.3
2024-02-20T07:36:18.796Z,1027.3
2024-02-20T07:37:34.906Z,1027.3
2024-02-20T07:38:51.014Z,1027.3
2024-02-20T07:40:07.136Z,1027.3
2024-02-20T07:41:23.251Z,1027.3
2024-02-20T07:42:39.365Z,1027.3
2024-02-20T07:43:55.471Z,1027.3
2024-02-20T07:45:11.570Z,1027.2
2024-02-20T07:46:27.685Z,1027.3
2024-02-20T07:47:43.782Z,1027.3
2024-02-20T07:48:59.896Z,1027.3
2024-02-20T07:50:15.995Z,1027.4
2024-02-20T07:51:31.000Z,1027.3
2024-02-20T07:52:47.232Z,1027.3
2024-02-20T07:54:03.361Z,1027.3
2024-02-20T07:55:19.469Z,1027.3
2024-02-20T07:56:35.571Z,1027.3
2024-02-20T07:57:51.687Z,1027.3
2024-02-20T07:59:07.786Z,1027.3
2024-02-20T08:00:23.897Z,1027.3
2024-02-20T08:01:40.003Z,1027.4
2024-02-20T08:02:56.131Z,1027.4
2024-02-20T08:04:12.235Z,1027.4
2024-02-20T08:05:28.336Z,1027.4
2024-02-20T08:06:44.452Z,1027.4
2024-02-20T08:07:59.593Z,1027.4
2024-02-20T08:09:15.689Z,1027.5
2024-02-20T08:10:31.810Z,1027.5
2024-02-20T08:11:47.939Z,1027.5
2024-02-20T08:13:04.063Z,1027.6
2024-02-20T08:14:20.167Z,1027.6
2024-02-20T08:15:36.278Z,1027.6
2024-02-20T08:16:52.394Z,1027.6
2024-02-20T08:18:08.517Z,1027.6
2024-02-20T08:19:24.611Z,1027.6
2024-02-20T08:20:40.733Z,1027.5
2024-02-20T08:21:56.827Z,1027.5
2024-02-20T08:23:12.949Z,1027.6
2024-02-20T08:24:28.083Z,1027.6
2024-02-20T08:25:44.178Z,1027.6
2024-02-20T08:27:00.293Z,1027.6
2024-02-20T08:28:16.410Z,1027.6
2024-02-20T08:29:32.518Z,1027.5
2024-02-20T08:30:48.614Z,1027.6
2024-02-20T08:32:04.727Z,1027.6
2024-02-20T08:33:20.843Z,1027.6
2024-02-20T08:34:36.952Z,1027.5
2024-02-20T08:35:53.067Z,1027.6
2024-02-20T08:37:09.189Z,1027.6
2024-02-20T08:38:25.298Z,1027.6
2024-02-20T08:39:41.401Z,1027.6
2024-02-20T08:40:57.507Z,1027.6
2024-02-20T08:42:13.617Z,1027.6
2024-02-20T08:43:29.731Z,1027.6
2024-02-20T08:44:45.826Z,1027.6
2024-02-20T08:46:00.946Z,1027.6
2024-02-20T08:47:17.076Z,1027.6
2024-02-20T08:48:33.183Z,1027.6
2024-02-20T08:49:49.285Z,1027.6
2024-02-20T08:51:05.386Z,1027.6
2024-02-20T08:52:21.517Z,1027.6
2024-02-20T08:53:37.632Z,1027.6
2024-02-20T08:54:53.719Z,1027.6
2024-02-20T08:56:09.834Z,1027.6
2024-02-20T08:57:25.959Z,1027.6
2024-02-20T08:58:42.058Z,1027.6
2024-02-20T08:59:58.174Z,1027.6
2024-02-20T09:01:14.283Z,1027.6
2024-02-20T09:02:29.416Z,1027.6
2024-02-20T09:03:45.532Z,1027.6
2024-02-20T09:05:01.654Z,1027.6
2024-02-20T09:06:17.756Z,1027.6
2024-02-20T09:07:33.870Z,1027.6
2024-02-20T09:08:49.973Z,1027.6
2024-02-20T09:10:06.079Z,1027.6
2024-02-20T09:11:22.182Z,1027.6
2024-02-20T09:12:38.306Z,1027.7
2024-02-20T09:13:54.406Z,1027.6
2024-02-20T09:15:10.522Z,1027.7
2024-02-20T09:16:26.637Z,1027.7
2024-02-20T09:17:42.743Z,1027.7
2024-02-20T09:18:57.885Z,1027.7
2024-02-20T09:20:13.994Z,1027.6
2024-02-20T09:21:30.098Z,1027.6
2024-02-20T09:22:46.211Z,1027.6
2024-02-20T09:24:02.320Z,1027.6
2024-02-20T09:25:18.442Z,1027.6
2024-02-20T09:26:34.550Z,1027.6
2024-02-20T09:27:50.652Z,1027.6
2024-02-20T09:29:06.782Z,1027.6
2024-02-20T09:30:22.898Z,1027.6
2024-02-20T09:31:39.006Z,1027.6
2024-02-20T09:32:55.122Z,1027.6
2024-02-20T09:34:11.222Z,1027.6
2024-02-20T09:35:26.356Z,1027.5
2024-02-20T09:36:42.460Z,1027.6
2024-02-20T09:37:58.581Z,1027.5
2024-02-20T09:39:14.689Z,1027.5
2024-02-20T09:40:30.804Z,1027.5
2024-02-20T09:41:46.913Z,1027.5
2024-02-20T09:43:03.014Z,1027.6
2024-02-20T09:44:19.115Z,1027.5
2024-02-20T09:45:35.230Z,1027.5
2024-02-20T09:46:51.346Z,1027.6
2024-02-20T09:48:07.447Z,1027.5
2024-02-20T09:49:23.548Z,1027.6
2024-02-20T09:50:39.665Z,1027.6
2024-02-20T09:51:54.805Z,1027.6
2024-02-20T09:53:10.901Z,1027.6
2024-02-20T09:54:27.018Z,1027.6
2024-02-20T09:55:43.117Z,1027.6
2024-02-20T09:56:59.231Z,1027.6
2024-02-20T09:58:15.347Z,1027.6
2024-02-20T09:59:31.459Z,1027.6
2024-02-20T10:00:47.557Z,1027.5
2024-02-20T10:02:03.659Z,1027.5
2024-02-20T10:03:19.774Z,1027.6
2024-02-20T10:04:35.896Z,1027.5
2024-02-20T10:05:51.998Z,1027.5
2024-02-20T10:07:08.098Z,1027.5
2024-02-20T10:08:23.228Z,1027.5
2024-02-20T10:09:39.320Z,1027.5
2024-02-20T10:10:55.422Z,1027.5
2024-02-20T10:12:11.530Z,1027.5
2024-02-20T10:13:27.638Z,1027.5
2024-02-20T10:14:43.754Z,1027.5
2024-02-20T10:15:59.856Z,1027.5
2024-02-20T10:17:15.965Z,1027.6
2024-02-20T10:18:32.074Z,1027.6
2024-02-20T10:19:48.193Z,1027.6
2024-02-20T10:21:04.304Z,1027.5
2024-02-20T10:22:20.397Z,1027.5
2024-02-20T10:23:36.517Z,1027.5
2024-02-20T10:24:51.653Z,1027.5
2024-02-20T10:26:07.762Z,1027.5
2024-02-20T10:27:23.878Z,1027.4
2024-02-20T10:28:39.986Z,1027.4
2024-02-20T10:31:12.211Z,1027.4
2024-02-20T10:32:28.305Z,1027.3
2024-02-20T10:33:44.412Z,1027.4
2024-02-20T10:35:00.523Z,1027.4
2024-02-20T10:36:16.637Z,1027.4
2024-02-20T10:37:32.738Z,1027.3
2024-02-20T10:38:48.855Z,1027.3
2024-02-20T10:40:04.956Z,1027.2
2024-02-20T10:41:20.074Z,1027.3
2024-02-20T10:42:36.190Z,1027.3
2024-02-20T10:43:52.294Z,1027.3
2024-02-20T10:45:08.423Z,1027.3
2024-02-20T10:46:24.531Z,1027.2
2024-02-20T10:47:40.639Z,1027.2
2024-02-20T10:48:56.732Z,1027.2
2024-02-20T10:50:12.833Z,1027.2
2024-02-20T10:51:28.943Z,1027.2
2024-02-20T10:52:45.064Z,1027.1
2024-02-20T10:54:01.154Z,1027.1
2024-02-20T10:55:17.254Z,1027.1
2024-02-20T10:56:33.357Z,1027.1
2024-02-20T10:57:49.456Z,1027.1
2024-02-20T10:59:05.565Z,1027.1
2024-02-20T11:00:21.679Z,1027.1
2024-02-20T11:01:36.811Z,1027.1
2024-02-20T11:02:52.909Z,1027.1
2024-02-20T11:04:09.014Z,1027
2024-02-20T11:05:25.125Z,1027
2024-02-20T11:06:41.220Z,1027
2024-02-20T11:07:57.328Z,1027
2024-02-20T11:09:13.430Z,1027
2024-02-20T11:10:29.533Z,1027.1
2024-02-20T11:11:45.647Z,1027
2024-02-20T11:13:01.739Z,1026.9
2024-02-20T11:14:17.842Z,1027
2024-02-20T11:15:33.944Z,1027
2024-02-20T11:16:50.058Z,1027
2024-02-20T11:18:06.153Z,1027.1
2024-02-20T11:19:21.296Z,1027.1
2024-02-20T11:20:37.387Z,1027.1
2024-02-20T11:21:53.490Z,1027
2024-02-20T11:23:09.600Z,1027
2024-02-20T11:24:25.699Z,1027
2024-02-20T11:25:41.801Z,1026.9
2024-02-20T11:26:57.917Z,1027
2024-02-20T11:28:14.032Z,1026.8
2024-02-20T11:29:30.127Z,1026.9
2024-02-20T11:30:46.243Z,1026.9
2024-02-20T11:32:02.357Z,1026.9
2024-02-20T11:33:18.459Z,1026.8
2024-02-20T11:34:34.574Z,1026.8
2024-02-20T11:35:50.676Z,1026.8
2024-02-20T11:37:05.810Z,1026.8
2024-02-20T11:38:21.911Z,1026.8
2024-02-20T11:39:38.020Z,1026.8
2024-02-20T11:40:54.135Z,1026.8
2024-02-20T11:42:10.229Z,1027
2024-02-20T11:43:26.350Z,1026.7
2024-02-20T11:44:42.455Z,1026.7
2024-02-20T11:45:58.554Z,1026.8
2024-02-20T11:47:14.664Z,1026.7
2024-02-20T11:48:30.778Z,1026.8
2024-02-20T11:49:46.901Z,1026.6
2024-02-20T11:51:02.994Z,1026.6
2024-02-20T11:52:19.117Z,1026.6
2024-02-20T11:53:35.205Z,1026.5
2024-02-20T11:54:50.324Z,1026.6
2024-02-20T11:56:06.440Z,1026.6
2024-02-20T11:57:22.529Z,1026.5
2024-02-20T11:58:38.643Z,1026.5
2024-02-20T11:59:54.738Z,1026.5
2024-02-20T12:01:10.847Z,1026.5
2024-02-20T12:02:26.954Z,1026.5
2024-02-20T12:03:43.056Z,1026.5
2024-02-20T12:04:59.156Z,1026.5
2024-02-20T12:06:15.266Z,1026.6
2024-02-20T12:07:31.368Z,1026.6
2024-02-20T12:08:47.460Z,1026.6
2024-02-20T12:10:03.591Z,1026.6
2024-02-20T12:11:18.718Z,1026.5
2024-02-20T12:12:34.819Z,1026.5
2024-02-20T12:13:50.921Z,1026.7
2024-02-20T12:15:07.043Z,1026.6
2024-02-20T12:16:23.136Z,1026.6
2024-02-20T12:17:39.238Z,1026.6
2024-02-20T12:18:55.354Z,1026.6
2024-02-20T12:20:11.448Z,1026.5
2024-02-20T12:21:27.571Z,1026.6
2024-02-20T12:22:43.680Z,1026.6
2024-02-20T12:23:59.787Z,1026.5
2024-02-20T12:25:15.897Z,1026.4
2024-02-20T12:26:31.999Z,1026.4
2024-02-20T12:27:48.102Z,1026.4
2024-02-20T12:29:04.200Z,1026.4
2024-02-20T12:30:19.314Z,1026.5
2024-02-20T12:31:35.430Z,1026.5
2024-02-20T12:32:51.543Z,1026.4
2024-02-20T12:34:07.640Z,1026.4
2024-02-20T12:35:23.739Z,1026.3
2024-02-20T12:36:39.857Z,1026.3
2024-02-20T12:37:55.950Z,1026.2
2024-02-20T12:39:12.044Z,1026.2
2024-02-20T12:40:28.161Z,1026.1
2024-02-20T12:41:44.276Z,1026.1
2024-02-20T12:43:00.362Z,1026.2
2024-02-20T12:44:16.480Z,1026.1
2024-02-20T12:45:32.579Z,1026.1
2024-02-20T12:46:48.688Z,1026.1
2024-02-20T12:48:03.807Z,1026.1
2024-02-20T12:49:19.909Z,1026
2024-02-20T12:50:36.032Z,1026
2024-02-20T12:51:52.129Z,1026
2024-02-20T12:53:08.226Z,1026
2024-02-20T12:54:24.330Z,1026
2024-02-20T12:55:40.430Z,1026
2024-02-20T12:56:56.532Z,1025.9
2024-02-20T12:58:12.641Z,1026
2024-02-20T12:59:28.727Z,1025.8
2024-02-20T13:00:44.822Z,1025.9
2024-02-20T13:02:00.909Z,1025.8
2024-02-20T13:03:17.010Z,1025.8
2024-02-20T13:04:33.112Z,1025.8
2024-02-20T13:05:48.223Z,1025.8
2024-02-20T13:07:04.332Z,1025.7
2024-02-20T13:08:20.408Z,1025.7
2024-02-20T13:09:36.515Z,1025.6
2024-02-20T13:10:52.602Z,1025.7
2024-02-20T13:12:08.703Z,1025.6
2024-02-20T13:13:24.775Z,1025.5
2024-02-20T13:14:40.881Z,1025.6
2024-02-20T13:15:56.957Z,1025.5
2024-02-20T13:17:13.052Z,1025.5
2024-02-20T13:18:29.126Z,1025.5
2024-02-20T13:19:45.212Z,1025.4
2024-02-20T13:21:01.295Z,1025.3
2024-02-20T13:22:17.379Z,1025.3
2024-02-20T13:23:32.479Z,1025.3
2024-02-20T13:24:48.559Z,1025.4
2024-02-20T13:26:04.631Z,1025.3
2024-02-20T13:27:20.725Z,1025.2
2024-02-20T13:28:36.813Z,1025.2
2024-02-20T13:29:52.887Z,1025.3
2024-02-20T13:31:08.983Z,1025.3
2024-02-20T13:32:25.054Z,1025.2
2024-02-20T13:33:41.133Z,1025.2
2024-02-20T13:34:57.227Z,1025.2
2024-02-20T13:36:13.321Z,1025.2
2024-02-20T13:37:29.388Z,1025.2
2024-02-20T13:38:45.476Z,1025.3
2024-02-20T13:40:01.557Z,1025.2
2024-02-20T13:41:16.662Z,1025.3
2024-02-20T13:42:32.735Z,1025.3
2024-02-20T13:43:48.815Z,1025.3
2024-02-20T13:45:04.902Z,1025.3
2024-02-20T13:46:20.982Z,1025.3
2024-02-20T13:47:37.063Z,1025.3
2024-02-20T13:48:53.131Z,1025.3
2024-02-20T13:50:09.219Z,1025.3
2024-02-20T13:51:25.290Z,1025.3
2024-02-20T13:52:41.364Z,1025.2
2024-02-20T13:53:57.443Z,1025.2
2024-02-20T13:55:13.523Z,1025.2
2024-02-20T13:56:29.626Z,1025.2
2024-02-20T13:57:45.701Z,1025.2
2024-02-20T13:59:01.793Z,1025.2
2024-02-20T14:00:17.872Z,1025.1
2024-02-20T14:01:33.968Z,1025.1
2024-02-20T14:02:50.059Z,1025.1
2024-02-20T14:05:22.221Z,1025.1
2024-02-20T14:06:38.309Z,1025.1
2024-02-20T14:07:54.407Z,1025.1
2024-02-20T14:09:10.479Z,1025.1
2024-02-20T14:10:26.577Z,1025
2024-02-20T14:11:41.677Z,1025
2024-02-20T14:12:57.757Z,1025
2024-02-20T14:14:13.844Z,1025.1
2024-02-20T14:15:29.944Z,1025.1
2024-02-20T14:16:46.027Z,1025
2024-02-20T14:18:02.111Z,1024.9
2024-02-20T14:19:18.200Z,1025
2024-02-20T14:20:34.303Z,1024.9
2024-02-20T14:21:50.381Z,1025
2024-02-20T14:23:06.477Z,1024.9
2024-02-20T14:24:22.578Z,1024.9
2024-02-20T14:25:38.665Z,1024.7
2024-02-20T14:26:54.766Z,1024.7
2024-02-20T14:28:10.860Z,1024.7
2024-02-20T14:29:25.981Z,1024.7
2024-02-20T14:30:42.074Z,1024.7
2024-02-20T14:31:58.168Z,1024.7
2024-02-20T14:33:14.249Z,1024.8
2024-02-20T14:34:30.343Z,1024.8
2024-02-20T14:35:46.425Z,1024.8
2024-02-20T14:37:02.532Z,1024.8
2024-02-20T14:38:18.604Z,1024.7
2024-02-20T14:39:34.712Z,1024.7
2024-02-20T14:40:50.794Z,1024.7
2024-02-20T14:43:22.983Z,1024.6
2024-02-20T14:44:39.075Z,1024.6
2024-02-20T14:45:55.178Z,1024.6
2024-02-20T14:47:10.298Z,1024.6
2024-02-20T14:48:26.379Z,1024.6
2024-02-20T14:49:42.472Z,1024.5
2024-02-20T14:50:58.567Z,1024.5
2024-02-20T14:52:14.655Z,1024.5
2024-02-20T14:53:30.749Z,1024.4
2024-02-20T14:54:46.849Z,1024.4
2024-02-20T14:56:02.951Z,1024.4
2024-02-20T14:57:19.045Z,1024.4
2024-02-20T14:58:35.140Z,1024.3
2024-02-20T14:59:51.240Z,1024.3
2024-02-20T15:01:07.336Z,1024.2
2024-02-20T15:02:23.436Z,1024.3
2024-02-20T15:03:39.540Z,1024.2
2024-02-20T15:04:55.632Z,1024.2
2024-02-20T15:06:11.734Z,1024.2
2024-02-20T15:07:27.826Z,1024.1
2024-02-20T15:08:43.915Z,1024.1
2024-02-20T15:10:00.002Z,1024.1
2024-02-20T15:11:15.123Z,1024
2024-02-20T15:12:31.216Z,1024
2024-02-20T15:13:47.319Z,1024
2024-02-20T15:15:03.407Z,1024
2024-02-20T15:16:18.519Z,1023.9
2024-02-20T15:17:34.605Z,1023.9
2024-02-20T15:18:50.708Z,1023.9
2024-02-20T15:20:06.808Z,1023.9
2024-02-20T15:21:22.895Z,1023.9
2024-02-20T15:22:38.975Z,1023.8
2024-02-20T15:23:55.063Z,1023.9
2024-02-20T15:25:11.164Z,1023.9
2024-02-20T15:26:27.266Z,1023.9
2024-02-20T15:27:43.366Z,1023.9
2024-02-20T15:28:59.454Z,1023.9
2024-02-20T15:30:15.555Z,1023.9
2024-02-20T15:31:31.643Z,1023.9
2024-02-20T15:32:47.758Z,1023.9
2024-02-20T15:34:02.878Z,1023.9
2024-02-20T15:35:18.966Z,1023.9
2024-02-20T15:36:35.053Z,1023.9
2024-02-20T15:37:51.141Z,1023.9
2024-02-20T15:39:07.249Z,1023.9
2024-02-20T15:40:23.329Z,1023.9
2024-02-20T15:41:39.423Z,1024
2024-02-20T15:42:55.517Z,1024
2024-02-20T15:44:11.632Z,1024.1
2024-02-20T15:45:27.716Z,1024.1
2024-02-20T15:46:43.814Z,1024.1
2024-02-20T15:47:59.923Z,1024.1
2024-02-20T15:49:16.010Z,1024.2
2024-02-20T15:50:32.125Z,1024.2
2024-02-20T15:51:47.231Z,1024.2
2024-02-20T15:53:03.332Z,1024.2
2024-02-20T15:54:19.427Z,1024.3
2024-02-20T15:55:35.543Z,1024.3
2024-02-20T15:56:51.636Z,1024.2
2024-02-20T15:59:23.794Z,1024.3
2024-02-20T16:00:39.900Z,1024.3